Time;durP1;ratioP1;P1;durP2;ratioP2;P2;SDS_P1;SDS_P2;PMS_P1;PMS_P2;Temp;Humidity;BMP_temperature;BMP_pressure;BME280_temperature;BME280_humidity;BME280_pressure;Samples;Min_cycle;Max_cycle;Signal;HPM_P1;HPM_P2
2021/04/09 00:02:23;;;;;;;17.65;6.67;;;;;;;2.50;62.78;101705.73;1775594;80;21170;-50
2021/04/09 00:04:50;;;;;;;22.17;6.37;;;;;;;2.49;62.79;101709.25;1764252;81;21113;-50
2021/04/09 00:07:19;;;;;;;11.90;6.03;;;;;;;2.51;62.34;101711.48;1775671;80;21367;-50
2021/04/09 00:09:48;;;;;;;16.37;5.72;;;;;;;2.53;61.94;101715.04;1764135;81;21113;-50
2021/04/09 00:12:16;;;;;;;15.48;5.75;;;;;;;2.52;61.46;101717.23;1775657;80;21119;-50
2021/04/09 00:14:46;;;;;;;19.92;5.42;;;;;;;2.49;61.42;101717.20;1764176;81;21152;-50
2021/04/09 00:17:13;;;;;;;11.85;4.97;;;;;;;2.49;61.30;101721.17;1775728;80;21068;-50
2021/04/09 00:19:43;;;;;;;12.60;4.90;;;;;;;2.52;61.12;101722.53;1789396;79;21371;-50
2021/04/09 00:22:10;;;;;;;11.78;4.40;;;;;;;2.54;61.26;101727.45;1821757;78;21087;-50
2021/04/09 00:24:38;;;;;;;12.85;4.70;;;;;;;2.62;61.15;101727.97;1789569;80;21113;-51
2021/04/09 00:27:08;;;;;;;13.68;4.12;;;;;;;2.71;60.63;101730.73;1821754;78;21162;-50
2021/04/09 00:29:35;;;;;;;14.68;4.70;;;;;;;2.82;60.40;101729.13;1821845;78;21122;-50
2021/04/09 00:32:05;;;;;;;12.78;4.80;;;;;;;2.89;60.14;101740.70;1789489;80;21252;-50
2021/04/09 00:34:32;;;;;;;11.15;4.65;;;;;;;2.92;59.73;101730.14;1821826;78;21067;-50
2021/04/09 00:37:02;;;;;;;11.38;4.62;;;;;;;2.98;59.35;101731.95;1789443;80;21134;-50
2021/04/09 00:39:30;;;;;;;10.30;4.87;;;;;;;3.05;59.09;101740.45;1821788;78;21137;-49
2021/04/09 00:41:57;;;;;;;10.45;4.03;;;;;;;3.15;58.85;101742.78;1821807;78;21130;-50
2021/04/09 00:44:26;;;;;;;17.23;4.87;;;;;;;3.26;58.28;101751.73;1789528;80;21715;-51
2021/04/09 00:46:53;;;;;;;10.58;4.92;;;;;;;3.35;58.27;101742.98;1821728;78;21470;-50
2021/04/09 00:49:21;;;;;;;13.90;5.30;;;;;;;3.38;58.33;101748.32;1821889;78;21078;-50
2021/04/09 00:51:49;;;;;;;15.23;5.20;;;;;;;3.36;58.55;101750.07;1821791;78;21106;-50
2021/04/09 00:54:17;;;;;;;14.18;5.05;;;;;;;3.30;58.75;101752.66;1821804;78;21561;-50
2021/04/09 00:56:44;;;;;;;12.00;4.90;;;;;;;3.27;58.81;101756.61;1785177;79;21409;-50
2021/04/09 00:59:12;;;;;;;14.65;5.25;;;;;;;3.23;58.79;101754.34;1825502;78;21070;-50
2021/04/09 01:01:41;;;;;;;14.00;5.12;;;;;;;3.19;58.78;101760.91;1791585;80;21056;-50
2021/04/09 01:04:08;;;;;;;13.72;5.50;;;;;;;3.11;58.53;101761.72;1825817;78;21111;-50
2021/04/09 01:06:36;;;;;;;14.80;5.17;;;;;;;3.03;58.42;101760.74;1793994;80;21119;-51
2021/04/09 01:09:04;;;;;;;19.50;5.40;;;;;;;2.95;58.39;101763.70;1825823;78;21696;-50
2021/04/09 01:11:32;;;;;;;14.43;5.55;;;;;;;2.86;58.46;101760.08;1799195;79;21071;-50
2021/04/09 01:14:00;;;;;;;26.37;6.08;;;;;;;2.78;58.79;101766.14;1825850;78;21461;-50
2021/04/09 01:16:40;;;;;;;16.23;5.50;;;;;;;2.67;59.14;101766.90;1825812;78;21143;-50
2021/04/09 01:19:52;;;;;;;16.48;4.80;;;;;;;2.61;59.38;101760.62;1828355;78;21086;-50
2021/04/09 01:22:20;;;;;;;22.42;5.12;;;;;;;2.63;59.30;101762.85;1828296;78;21205;-50
2021/04/09 01:25:31;;;;;;;15.03;5.00;;;;;;;2.68;59.23;101765.13;1828124;78;21146;-50
2021/04/09 01:28:14;;;;;;;11.57;5.30;;;;;;;2.69;59.20;101766.90;1828170;78;21106;-51
2021/04/09 01:31:21;;;;;;;13.58;5.10;;;;;;;2.67;59.19;101774.84;1828121;78;21047;-51
2021/04/09 01:33:52;;;;;;;10.63;4.92;;;;;;;2.61;59.32;101769.89;1828128;77;21078;-50
2021/04/09 01:36:26;;;;;;;11.38;4.65;;;;;;;2.52;59.51;101771.52;1828244;77;22232;-50
2021/04/09 01:39:08;;;;;;;9.60;4.10;;;;;;;2.52;59.39;101774.61;1828417;78;21059;-50
2021/04/09 01:41:38;;;;;;;9.10;3.60;;;;;;;2.52;58.98;101774.16;1828030;77;21305;-49
2021/04/09 01:44:09;;;;;;;10.43;4.15;;;;;;;2.54;58.18;101780.40;1828108;78;21601;-49
2021/04/09 01:46:40;;;;;;;7.45;3.72;;;;;;;2.61;58.20;101781.80;1828194;78;21099;-49
2021/04/09 01:49:08;;;;;;;10.00;3.80;;;;;;;2.66;57.41;101781.42;1828212;78;21196;-49
2021/04/09 01:51:36;;;;;;;13.72;4.37;;;;;;;2.66;57.04;101780.10;1828056;78;21146;-49
2021/04/09 01:54:03;;;;;;;9.03;3.70;;;;;;;2.64;56.98;101783.17;1828115;78;21106;-51
2021/04/09 01:56:31;;;;;;;10.25;3.65;;;;;;;2.61;56.88;101783.13;1828064;78;21119;-50
2021/04/09 01:58:59;;;;;;;8.90;3.80;;;;;;;2.60;56.71;101787.97;1827826;78;21146;-49
2021/04/09 02:01:26;;;;;;;8.65;3.60;;;;;;;2.65;56.69;101790.24;1827874;78;22469;-49
2021/04/09 02:03:54;;;;;;;7.58;3.90;;;;;;;2.65;56.43;101792.89;1798058;79;21057;-50
2021/04/09 02:06:22;;;;;;;9.45;4.83;;;;;;;2.60;56.52;101796.78;1831087;78;21065;-50
2021/04/09 02:08:50;;;;;;;8.63;4.22;;;;;;;2.53;56.78;101797.57;1830946;78;21058;-50
2021/04/09 02:11:18;;;;;;;11.73;4.03;;;;;;;2.41;57.00;101795.63;1831182;78;21094;-50
2021/04/09 02:13:48;;;;;;;8.25;3.67;;;;;;;2.34;57.31;101799.05;1830963;78;21197;-50
2021/04/09 02:16:17;;;;;;;6.00;3.83;;;;;;;2.32;57.29;101796.78;1803457;78;21145;-49
2021/04/09 02:18:45;;;;;;;8.73;4.37;;;;;;;2.29;57.55;101796.32;1783934;78;21179;-50
2021/04/09 02:21:13;;;;;;;8.70;3.90;;;;;;;2.26;57.45;101795.83;1763307;81;21047;-49
2021/04/09 02:23:40;;;;;;;9.05;3.30;;;;;;;2.25;57.48;101795.38;1775058;80;21052;-49
2021/04/09 02:26:09;;;;;;;10.08;4.37;;;;;;;2.23;57.51;101797.10;1763303;81;21370;-50
2021/04/09 02:28:39;;;;;;;7.62;3.75;;;;;;;2.23;57.56;101794.45;1775031;80;21202;-50
2021/04/09 02:31:09;;;;;;;8.63;4.33;;;;;;;2.22;57.48;101799.30;1763405;81;21450;-50
2021/04/09 02:33:36;;;;;;;10.68;4.70;;;;;;;2.22;57.54;101800.61;1774970;80;21157;-50
2021/04/09 02:36:19;;;;;;;9.28;4.45;;;;;;;2.16;57.77;101801.84;1763402;81;21097;-50
2021/04/09 02:38:53;;;;;;;9.65;5.47;;;;;;;2.09;58.18;101803.91;1775009;80;22546;-51
2021/04/09 02:41:22;;;;;;;;;;;;;;;1.95;58.65;101801.94;1765722;81;21485;-51
2021/04/09 02:43:49;;;;;;;11.03;4.72;;;;;;;1.82;59.10;101801.24;1775104;80;20215;-51
2021/04/09 02:46:32;;;;;;;12.78;4.55;;;;;;;1.73;59.44;101802.41;1763216;81;21112;-52
2021/04/09 02:49:13;;;;;;;9.47;4.70;;;;;;;1.75;59.74;101800.68;1889341;76;22673;-51
2021/04/09 02:51:42;;;;;;;10.88;4.65;;;;;;;1.72;60.10;101812.08;1860442;77;20937;-51
2021/04/09 02:54:15;;;;;;;10.65;4.75;;;;;;;1.72;60.46;101801.50;1860420;77;21358;-51
2021/04/09 02:56:42;;;;;;;14.18;4.70;;;;;;;1.71;60.69;101809.88;1846368;77;21034;-50
2021/04/09 02:59:13;;;;;;;15.23;4.53;;;;;;;1.73;60.89;101810.34;1824791;78;21098;-50
2021/04/09 03:01:41;;;;;;;10.18;4.03;;;;;;;1.73;61.01;101812.98;1824762;78;20948;-50
2021/04/09 03:04:09;;;;;;;10.35;4.47;;;;;;;1.72;61.15;101818.69;1824925;78;21361;-50
2021/04/09 03:06:37;;;;;;;10.60;4.70;;;;;;;1.71;61.23;101817.81;1824808;78;21439;-50
2021/04/09 03:09:06;;;;;;;9.80;4.33;;;;;;;1.72;61.50;101820.01;1824765;78;20916;-51
2021/04/09 03:11:34;;;;;;;9.28;4.20;;;;;;;1.73;61.81;101823.11;1824755;78;21063;-49
2021/04/09 03:14:02;;;;;;;10.63;4.33;;;;;;;1.79;62.34;101823.67;1824846;78;21122;-50
2021/04/09 03:16:36;;;;;;;12.23;4.87;;;;;;;1.88;62.30;101825.19;1804830;78;21122;-49
2021/04/09 03:19:04;;;;;;;9.45;4.75;;;;;;;1.96;61.92;101829.26;1828539;78;21733;-50
2021/04/09 03:21:33;;;;;;;11.60;5.45;;;;;;;1.97;61.94;101830.63;1830019;78;21129;-50
2021/04/09 03:24:00;;;;;;;9.93;4.80;;;;;;;1.96;61.61;101835.45;1830010;78;21173;-50
2021/04/09 03:26:27;;;;;;;10.90;5.28;;;;;;;1.89;61.64;101837.95;1829980;78;21137;-50
2021/04/09 03:28:55;;;;;;;16.25;5.72;;;;;;;1.81;61.86;101830.78;1830050;78;21074;-50
2021/04/09 03:31:24;;;;;;;13.25;5.55;;;;;;;1.75;61.79;101829.77;1830026;78;21387;-50
2021/04/09 03:33:52;;;;;;;11.73;5.00;;;;;;;1.69;61.82;101830.13;1830006;78;21146;-50
2021/04/09 03:36:19;;;;;;;11.60;5.70;;;;;;;1.64;61.94;101834.41;1830008;78;21122;-50
2021/04/09 03:38:47;;;;;;;13.30;5.80;;;;;;;1.57;62.13;101838.70;1829967;77;21035;-50
2021/04/09 03:41:15;;;;;;;14.98;7.00;;;;;;;1.50;62.35;101847.35;1830098;78;21034;-50
2021/04/09 03:43:43;;;;;;;15.72;6.15;;;;;;;1.49;62.55;101848.66;1829982;78;21346;-50
2021/04/09 03:46:10;;;;;;;19.57;6.80;;;;;;;1.51;62.75;101854.86;1829963;78;21126;-50
2021/04/09 03:48:38;;;;;;;12.80;6.62;;;;;;;1.57;62.66;101852.34;1829797;78;21040;-49
2021/04/09 03:51:06;;;;;;;15.72;7.00;;;;;;;1.62;62.50;101863.89;1830030;78;21038;-50
2021/04/09 03:53:33;;;;;;;16.62;6.03;;;;;;;1.66;62.54;101860.47;1830041;78;21122;-50
2021/04/09 03:56:02;;;;;;;16.97;5.67;;;;;;;1.73;62.58;101864.55;1833176;77;21378;-50
2021/04/09 03:58:30;;;;;;;9.75;5.28;;;;;;;1.79;62.52;101869.53;1860042;77;21143;-50
2021/04/09 04:00:58;;;;;;;14.07;5.58;;;;;;;1.87;62.43;101869.66;1859673;77;21045;-50
2021/04/09 04:03:25;;;;;;;14.03;5.62;;;;;;;1.95;62.23;101870.70;1859612;77;21083;-50
2021/04/09 04:05:53;;;;;;;12.28;5.00;;;;;;;2.06;61.91;101872.65;1859658;77;21087;-50
2021/04/09 04:08:21;;;;;;;15.90;4.90;;;;;;;2.17;61.45;101883.02;1859582;77;21344;-50
2021/04/09 04:10:50;;;;;;;12.07;5.90;;;;;;;2.26;61.29;101876.55;1859582;77;21205;-51
2021/04/09 04:13:22;;;;;;;14.83;5.22;;;;;;;2.35;61.19;101886.41;1859509;77;21143;-50
2021/04/09 04:15:51;;;;;;;13.68;4.75;;;;;;;2.47;60.76;101885.72;1859625;77;21115;-49
2021/04/09 04:18:19;;;;;;;11.60;4.78;;;;;;;2.57;60.38;101891.65;1844204;77;21035;-49
2021/04/09 04:20:46;;;;;;;10.63;5.15;;;;;;;2.69;60.16;101899.32;1829402;78;21449;-49
2021/04/09 04:23:14;;;;;;;10.35;5.15;;;;;;;2.81;59.60;101894.23;1829351;78;21071;-50
2021/04/09 04:25:41;;;;;;;14.95;5.15;;;;;;;2.94;59.25;101899.28;1829331;78;21115;-49
2021/04/09 04:28:10;;;;;;;10.85;5.17;;;;;;;3.06;59.27;101905.62;1829353;78;21142;-49
2021/04/09 04:30:37;;;;;;;17.30;5.35;;;;;;;3.15;59.14;101909.74;1829428;78;21035;-50
2021/04/09 04:33:05;;;;;;;10.38;5.47;;;;;;;3.22;59.04;101912.05;1829305;78;21470;-51
2021/04/09 04:35:32;;;;;;;13.35;5.78;;;;;;;3.29;58.84;101911.27;1829318;78;20999;-51
2021/04/09 04:38:00;;;;;;;14.65;5.90;;;;;;;3.35;58.72;101915.77;1829357;78;20984;-51
2021/04/09 04:40:28;;;;;;;13.18;5.72;;;;;;;3.41;58.46;101915.39;1829392;78;21055;-52
2021/04/09 04:42:55;;;;;;;15.13;5.53;;;;;;;3.52;58.12;101920.84;1829327;78;21031;-51
2021/04/09 04:45:24;;;;;;;13.95;6.10;;;;;;;3.61;57.82;101914.76;1829433;78;21511;-51
2021/04/09 04:47:51;;;;;;;16.52;6.20;;;;;;;3.68;57.71;101916.64;1829848;77;21066;-51
2021/04/09 04:50:22;;;;;;;16.52;6.15;;;;;;;3.78;57.65;101914.09;1832877;78;21094;-51
2021/04/09 04:52:50;;;;;;;18.20;6.78;;;;;;;3.87;57.51;101916.87;1832924;78;21153;-51
2021/04/09 04:55:18;;;;;;;15.13;6.80;;;;;;;3.96;57.35;101918.28;1833022;77;21169;-51
2021/04/09 04:57:46;;;;;;;16.27;6.47;;;;;;;4.04;57.19;101927.66;1848604;77;21417;-51
2021/04/09 05:00:16;;;;;;;12.05;6.42;;;;;;;4.15;56.82;101927.33;1851627;77;21135;-51
2021/04/09 05:02:44;;;;;;;15.18;6.90;;;;;;;4.35;56.38;101925.31;1851824;77;20961;-51
2021/04/09 05:05:14;;;;;;;17.05;6.85;;;;;;;4.35;56.38;101925.31;1851657;77;21135;-51
2021/04/09 05:07:41;;;;;;;14.25;6.72;;;;;;;4.41;56.00;101931.13;1851780;77;21099;-51
2021/04/09 05:10:10;;;;;;;18.92;7.00;;;;;;;4.58;55.00;101944.14;1851704;77;21591;-51
2021/04/09 05:12:37;;;;;;;13.13;6.22;;;;;;;4.58;55.00;101944.14;1851598;77;21056;-52
2021/04/09 05:15:07;;;;;;;19.07;7.60;;;;;;;4.72;54.65;101942.02;1851758;77;20929;-51
2021/04/09 05:17:36;;;;;;;18.10;7.25;;;;;;;4.83;54.98;101944.34;1846686;77;20921;-51
2021/04/09 05:20:05;;;;;;;16.27;6.97;;;;;;;4.96;54.80;101945.75;1827541;77;21082;-51
2021/04/09 05:22:33;;;;;;;13.48;5.78;;;;;;;5.12;54.45;101949.44;1827583;78;21355;-51
2021/04/09 05:25:01;;;;;;;11.03;4.87;;;;;;;5.26;53.87;101961.50;1827564;78;20987;-51
2021/04/09 05:27:29;;;;;;;13.55;6.28;;;;;;;5.31;52.87;101962.41;1827642;78;21059;-51
2021/04/09 05:29:57;;;;;;;14.70;6.55;;;;;;;5.31;53.33;101962.41;1827655;78;21524;-52
2021/04/09 05:32:25;;;;;;;15.32;6.90;;;;;;;5.40;54.37;101970.89;1827667;78;21534;-52
2021/04/09 05:34:54;;;;;;;16.20;6.62;;;;;;;5.40;54.37;101933.64;1827553;78;21501;-52
2021/04/09 05:37:22;;;;;;;12.75;5.90;;;;;;;5.57;54.26;101963.00;1827477;78;20991;-52
2021/04/09 05:39:50;;;;;;;12.82;6.60;;;;;;;5.71;53.71;101964.39;1827596;78;21175;-53
2021/04/09 05:42:19;;;;;;;11.93;5.65;;;;;;;5.81;54.05;101969.31;1827533;78;21039;-51
2021/04/09 05:44:47;;;;;;;18.17;6.08;;;;;;;5.94;53.76;101970.25;1827606;78;21067;-51
2021/04/09 05:47:14;;;;;;;13.22;6.00;;;;;;;6.02;53.73;101964.11;1830997;77;22354;-51
2021/04/09 05:49:42;;;;;;;11.55;6.03;;;;;;;6.19;53.67;101964.61;1859864;76;21090;-50
2021/04/09 05:52:10;;;;;;;9.08;5.70;;;;;;;6.35;53.62;101965.99;1862861;77;20960;-51
2021/04/09 05:54:40;;;;;;;9.33;5.72;;;;;;;6.55;53.25;101966.02;1862757;77;21471;-51
2021/04/09 05:57:08;;;;;;;13.40;5.37;;;;;;;6.70;52.36;101970.47;1842732;77;21055;-51
2021/04/09 05:59:36;;;;;;;9.03;5.25;;;;;;;6.84;51.51;101969.13;1827203;78;21257;-51
2021/04/09 06:02:05;;;;;;;14.38;6.35;;;;;;;6.95;50.91;101974.47;1827105;78;20924;-51
2021/04/09 06:04:33;;;;;;;13.28;5.60;;;;;;;7.07;50.72;101978.91;1827261;78;21133;-51
2021/04/09 06:07:00;;;;;;;12.58;5.97;;;;;;;7.26;49.17;101983.80;1827268;78;21101;-50
2021/04/09 06:09:28;;;;;;;15.30;6.35;;;;;;;7.59;49.70;101980.61;1827260;78;21047;-51
2021/04/09 06:11:58;;;;;;;14.95;5.85;;;;;;;8.09;49.16;101976.44;1827276;77;21783;-51
2021/04/09 06:14:26;;;;;;;16.57;6.92;;;;;;;8.42;48.10;101986.48;1827172;77;21065;-51
2021/04/09 06:16:55;;;;;;;11.28;5.70;;;;;;;8.48;47.38;101983.76;1827206;78;20968;-51
2021/04/09 06:19:23;;;;;;;14.58;6.40;;;;;;;8.34;46.45;101984.31;1860847;77;21111;-51
2021/04/09 06:21:50;;;;;;;16.67;6.72;;;;;;;8.10;47.40;101991.10;1862736;77;21091;-51
2021/04/09 06:24:19;;;;;;;13.05;6.70;;;;;;;7.97;47.71;101992.07;1862689;77;21348;-52
2021/04/09 06:26:46;;;;;;;14.20;6.30;;;;;;;7.89;48.03;101999.64;1862757;77;21050;-51
2021/04/09 06:29:14;;;;;;;14.70;6.22;;;;;;;7.95;48.00;102001.41;1862771;77;21000;-50
2021/04/09 06:31:42;;;;;;;16.30;6.28;;;;;;;8.10;48.19;101995.57;1862711;77;21175;-50
2021/04/09 06:34:10;;;;;;;12.75;6.33;;;;;;;8.28;47.84;102000.80;1862680;77;21178;-51
2021/04/09 06:36:39;;;;;;;11.22;6.12;;;;;;;8.47;47.52;101998.02;1862715;77;21355;-50
2021/04/09 06:39:11;;;;;;;14.78;5.67;;;;;;;8.60;46.88;102004.20;1862685;77;21083;-51
2021/04/09 06:41:39;;;;;;;11.80;5.72;;;;;;;8.67;46.84;101999.71;1862803;77;21483;-51
2021/04/09 06:44:07;;;;;;;13.10;5.45;;;;;;;8.73;46.70;102006.34;1862800;77;21039;-52
2021/04/09 06:46:35;;;;;;;11.38;4.22;;;;;;;8.69;46.71;102011.28;1862801;77;21036;-51
2021/04/09 06:49:02;;;;;;;15.45;5.28;;;;;;;8.71;46.97;102012.16;1861329;76;21352;-51
2021/04/09 06:51:30;;;;;;;16.20;7.45;;;;;;;8.78;47.19;102004.55;1859515;77;22327;-52
2021/04/09 06:53:59;;;;;;;18.65;7.75;;;;;;;8.84;45.92;102015.19;1859516;77;21001;-52
2021/04/09 06:56:27;;;;;;;13.90;5.70;;;;;;;8.88;45.59;102009.38;1849417;77;21118;-52
2021/04/09 06:58:56;;;;;;;10.78;5.53;;;;;;;8.85;45.08;102023.66;1824022;77;21122;-51
2021/04/09 07:01:24;;;;;;;12.78;5.20;;;;;;;8.76;44.94;102006.79;1824008;78;21358;-51
2021/04/09 07:03:55;;;;;;;18.95;9.85;;;;;;;8.69;45.05;102013.95;1824009;77;21103;-50
2021/04/09 07:06:32;;;;;;;13.60;6.70;;;;;;;8.65;45.46;102014.88;1824017;78;21491;-51
2021/04/09 07:09:00;;;;;;;17.80;9.18;;;;;;;8.64;45.44;102018.02;1824159;78;21209;-51
2021/04/09 07:11:28;;;;;;;15.18;7.85;;;;;;;8.71;45.57;102009.05;1824102;78;21491;-51
2021/04/09 07:13:59;;;;;;;13.30;6.35;;;;;;;8.83;45.56;102009.41;1824047;78;21185;-51
2021/04/09 07:16:27;;;;;;;11.55;5.53;;;;;;;8.97;45.44;102019.13;1824033;78;21494;-51
2021/04/09 07:18:59;;;;;;;13.68;7.45;;;;;;;9.07;44.76;102031.52;1851234;77;21072;-51
2021/04/09 07:21:35;;;;;;;12.13;6.25;;;;;;;9.09;45.15;102029.71;1859430;77;21036;-52
2021/04/09 07:24:21;;;;;;;13.68;4.92;;;;;;;9.06;44.99;102024.39;1859492;77;21492;-51
2021/04/09 07:26:53;;;;;;;8.48;3.90;;;;;;;8.97;44.96;102016.45;1859538;76;21335;-51
2021/04/09 07:29:41;;;;;;;10.23;6.08;;;;;;;8.93;43.91;102038.75;1848086;77;21174;-51
2021/04/09 07:32:16;;;;;;;10.45;6.33;;;;;;;8.91;44.28;102021.83;1825541;78;21166;-52
2021/04/09 07:35:03;;;;;;;14.75;7.78;;;;;;;8.98;44.53;102053.00;1825313;78;21147;-52
2021/04/09 07:37:58;;;;;;;15.53;6.53;;;;;;;9.07;44.08;102034.19;1830101;77;21114;-50
2021/04/09 07:40:30;;;;;;;11.50;4.62;;;;;;;9.19;44.33;102037.21;1825670;78;21196;-50
2021/04/09 07:43:01;;;;;;;7.20;3.85;;;;;;;9.30;44.31;102033.11;1825813;78;21147;-51
2021/04/09 07:45:30;;;;;;;9.33;4.17;;;;;;;9.36;44.41;102038.39;1825852;78;21161;-52
2021/04/09 07:48:05;;;;;;;7.17;4.40;;;;;;;9.43;44.40;102034.78;1825701;78;21067;-51
2021/04/09 07:50:41;;;;;;;8.25;4.55;;;;;;;9.49;44.27;102044.98;1825828;78;21190;-50
2021/04/09 07:53:14;;;;;;;10.85;4.20;;;;;;;9.52;44.28;102046.28;1825870;78;21194;-51
2021/04/09 07:55:44;;;;;;;8.58;3.90;;;;;;;9.54;43.99;102039.13;1845400;77;21121;-52
2021/04/09 07:58:20;;;;;;;9.75;4.28;;;;;;;9.54;43.45;102033.77;1729396;81;21209;-50
2021/04/09 08:00:51;;;;;;;12.33;4.33;;;;;;;9.53;43.71;102037.34;1759014;80;21195;-50
2021/04/09 08:03:38;;;;;;;10.40;5.55;;;;;;;9.56;43.93;102042.67;1789512;80;21146;-51
2021/04/09 08:06:19;;;;;;;7.65;4.15;;;;;;;9.65;44.00;102034.56;1872994;76;28118;-50
2021/04/09 08:08:52;;;;;;;8.43;3.80;;;;;;;9.69;43.94;102051.03;1840804;78;21088;-50
2021/04/09 08:11:27;;;;;;;6.40;3.50;;;;;;;9.74;42.71;102034.45;1840636;77;21341;-51
2021/04/09 08:14:10;;;;;;;11.75;3.67;;;;;;;9.82;41.89;102041.50;1841013;78;20883;-51
2021/04/09 08:16:46;;;;;;;5.55;3.25;;;;;;;9.85;41.46;102028.97;1840962;78;21143;-51
2021/04/09 08:19:25;;;;;;;5.70;3.40;;;;;;;9.93;41.41;102035.58;1829432;78;20908;-50
2021/04/09 08:21:59;;;;;;;7.30;3.42;;;;;;;10.02;41.69;102030.10;1827976;78;20900;-51
2021/04/09 08:24:31;;;;;;;7.83;3.35;;;;;;;10.17;41.44;102032.17;1827942;78;21477;-51
2021/04/09 08:26:59;;;;;;;12.58;4.53;;;;;;;10.26;41.06;102028.48;1828008;78;21573;-51
2021/04/09 08:29:30;;;;;;;10.98;3.67;;;;;;;10.29;40.60;102026.66;1827987;78;20988;-50
2021/04/09 08:32:02;;;;;;;8.50;3.35;;;;;;;10.32;40.92;102028.39;1828031;78;21197;-51
2021/04/09 08:34:29;;;;;;;7.50;3.12;;;;;;;10.23;40.37;102037.44;1827973;78;21106;-51
2021/04/09 08:36:58;;;;;;;8.70;3.77;;;;;;;10.10;40.75;102029.14;1827958;78;21124;-50
2021/04/09 08:39:28;;;;;;;6.03;3.33;;;;;;;10.04;41.03;102028.28;1825906;78;21133;-50
2021/04/09 08:41:57;;;;;;;6.47;3.00;;;;;;;10.01;40.37;102029.67;1828078;78;21110;-51
2021/04/09 08:44:26;;;;;;;5.28;3.17;;;;;;;10.01;40.05;102014.93;1827952;78;21146;-51
2021/04/09 08:46:53;;;;;;;6.00;2.35;;;;;;;10.18;39.96;102018.77;1828002;78;21050;-51
2021/04/09 08:49:21;;;;;;;5.05;2.87;;;;;;;10.43;39.90;102018.90;1827976;78;21256;-51
2021/04/09 08:51:50;;;;;;;6.22;2.92;;;;;;;10.64;39.51;102008.77;1827931;78;21171;-51
2021/04/09 08:54:23;;;;;;;8.95;2.77;;;;;;;10.80;38.65;102008.97;1759046;78;21074;-51
2021/04/09 08:56:50;;;;;;;9.78;2.60;;;;;;;10.99;38.19;102027.47;1826465;78;21098;-51
2021/04/09 08:59:47;;;;;;;5.95;2.40;;;;;;;11.01;37.55;102022.48;1824886;78;21555;-51
2021/04/09 09:02:27;;;;;;;9.38;2.70;;;;;;;10.95;36.01;102016.36;1824730;78;21428;-51
2021/04/09 09:05:10;;;;;;;6.33;3.08;;;;;;;10.94;35.83;102017.23;1826659;78;20979;-52
2021/04/09 09:07:58;;;;;;;12.95;3.30;;;;;;;11.03;36.11;102017.10;1831009;78;20984;-51
2021/04/09 09:10:36;;;;;;;4.72;2.77;;;;;;;11.13;36.26;102020.05;1830962;78;21090;-51
2021/04/09 09:13:15;;;;;;;3.55;2.80;;;;;;;11.11;35.89;102025.90;1830879;78;21157;-51
2021/04/09 09:15:52;;;;;;;5.75;2.77;;;;;;;10.97;35.49;102019.90;1830646;77;21153;-51
2021/04/09 09:18:25;;;;;;;5.53;2.70;;;;;;;10.83;36.30;102042.45;1831141;78;20973;-51
2021/04/09 09:21:10;;;;;;;;;;;;;;;10.62;36.73;102037.41;1834704;77;20913;-51
2021/04/09 09:23:48;;;;;;;5.22;3.20;;;;;;;10.46;37.43;102033.59;1832050;78;20127;-51
2021/04/09 09:26:48;;;;;;;5.67;2.95;;;;;;;10.33;37.75;102030.16;1816303;78;21169;-51
2021/04/09 09:29:27;;;;;;;5.67;3.08;;;;;;;10.27;38.06;102033.80;1831967;78;21250;-50
2021/04/09 09:32:05;;;;;;;6.80;2.92;;;;;;;10.26;37.89;102023.99;1831965;78;21060;-51
2021/04/09 09:34:40;;;;;;;3.08;2.20;;;;;;;10.26;37.39;102032.03;1832067;78;20941;-51
2021/04/09 09:37:22;;;;;;;9.35;3.15;;;;;;;10.37;36.82;102025.66;1831983;78;20926;-52
2021/04/09 09:40:02;;;;;;;14.20;5.30;;;;;;;10.42;37.82;102020.70;1831133;77;20988;-51
2021/04/09 09:42:34;;;;;;;8.48;5.05;;;;;;;10.52;44.30;102013.42;1806212;78;21188;-51
2021/04/09 09:45:11;;;;;;;7.83;4.22;;;;;;;10.49;47.28;102022.82;1801868;78;21104;-51
2021/04/09 09:47:41;;;;;;;18.25;6.42;;;;;;;10.28;45.61;102026.23;1832036;78;20973;-51
2021/04/09 09:50:13;;;;;;;13.98;5.62;;;;;;;10.17;47.87;102017.42;1831992;77;21109;-51
2021/04/09 09:53:05;;;;;;;11.50;6.45;;;;;;;10.09;49.50;102024.69;1831534;77;20948;-52
2021/04/09 09:55:43;;;;;;;12.13;6.92;;;;;;;10.02;50.28;102026.55;1831622;77;21250;-51
2021/04/09 09:58:25;;;;;;;13.88;7.10;;;;;;;10.13;50.77;102022.41;1830235;78;21060;-52
2021/04/09 10:01:03;;;;;;;12.80;7.12;;;;;;;10.24;50.08;102007.05;1831985;78;21120;-52
2021/04/09 10:03:35;;;;;;;10.78;5.92;;;;;;;10.35;50.27;102004.22;1798352;79;21138;-57
2021/04/09 10:06:14;;;;;;;13.28;7.20;;;;;;;10.48;49.03;101995.58;1798738;79;21479;-56
2021/04/09 10:08:44;;;;;;;13.10;7.10;;;;;;;10.51;49.59;102003.60;1797064;79;21444;-56
2021/04/09 10:11:19;;;;;;;14.13;7.17;;;;;;;10.50;49.00;101997.81;1809874;78;20922;-55
2021/04/09 10:13:48;;;;;;;17.57;7.47;;;;;;;10.47;49.14;102008.55;1832098;77;21000;-56
2021/04/09 10:16:24;;;;;;;19.82;7.70;;;;;;;10.43;49.41;101993.42;1831252;78;21155;-56
2021/04/09 10:18:56;;;;;;;14.40;7.62;;;;;;;10.30;49.34;102008.33;1831977;78;21044;-55
2021/04/09 10:21:32;;;;;;;16.27;7.03;;;;;;;10.16;49.37;102008.95;1832041;77;21126;-56
2021/04/09 10:24:16;;;;;;;12.43;6.83;;;;;;;10.10;48.26;102015.27;1832082;77;20969;-56
2021/04/09 10:27:02;;;;;;;13.43;7.15;;;;;;;10.01;47.46;102014.93;1832104;77;21534;-55
2021/04/09 10:29:33;;;;;;;14.50;7.67;;;;;;;9.86;48.19;102008.45;1831328;77;21574;-55
2021/04/09 10:32:02;;;;;;;26.90;8.78;;;;;;;9.74;49.08;102003.65;1832195;78;21624;-56
2021/04/09 10:34:32;;;;;;;16.85;6.83;;;;;;;9.75;50.30;101999.19;1831917;78;21164;-57
2021/04/09 10:37:01;;;;;;;12.90;6.95;;;;;;;9.87;49.84;102000.84;1831864;77;21064;-56
2021/04/09 10:39:29;;;;;;;14.50;7.33;;;;;;;9.99;48.47;101995.78;1831964;78;20997;-55
2021/04/09 10:42:02;;;;;;;21.23;6.67;;;;;;;10.02;47.77;101989.04;1832016;78;21548;-55
2021/04/09 10:44:29;;;;;;;16.40;7.12;;;;;;;10.02;46.90;102005.98;1831924;77;21520;-54
2021/04/09 10:47:03;;;;;;;18.35;7.90;;;;;;;9.96;47.18;102007.88;1831948;78;21183;-55
2021/04/09 10:49:41;;;;;;;17.62;7.92;;;;;;;9.97;47.50;102002.95;1831807;78;21024;-54
2021/04/09 10:52:17;;;;;;;16.02;7.37;;;;;;;10.04;47.65;101993.45;1831913;78;20973;-56
2021/04/09 10:54:47;;;;;;;11.70;6.92;;;;;;;10.14;48.20;101978.61;1831618;77;21622;-56
2021/04/09 10:57:20;;;;;;;9.13;6.12;;;;;;;10.14;46.67;101979.95;1816298;78;21127;-56
2021/04/09 10:59:50;;;;;;;16.82;6.50;;;;;;;10.12;46.16;101991.14;1817100;78;21364;-51
2021/04/09 11:02:21;;;;;;;16.17;6.37;;;;;;;10.13;46.04;101998.28;1816944;78;21135;-51
2021/04/09 11:04:54;;;;;;;15.90;7.70;;;;;;;10.22;46.41;101991.44;1817044;78;21134;-52
2021/04/09 11:07:48;;;;;;;;;;;;;;;10.27;47.37;101986.90;1833795;77;20997;-50
2021/04/09 11:10:36;;;;;;;14.10;7.17;;;;;;;10.27;47.57;101984.22;1814605;77;20481;-51
2021/04/09 11:13:07;;;;;;;10.58;5.92;;;;;;;10.28;46.63;101973.95;1749849;81;21214;-55
2021/04/09 11:15:41;;;;;;;9.48;5.22;;;;;;;10.27;45.70;101974.83;1766258;80;21191;-51
2021/04/09 11:18:09;;;;;;;13.28;5.80;;;;;;;10.26;44.78;101966.36;1768722;80;20985;-52
2021/04/09 11:20:44;;;;;;;12.88;4.70;;;;;;;10.28;44.03;101969.94;1769370;80;21152;-52
2021/04/09 11:23:15;;;;;;;12.58;5.10;;;;;;;10.31;42.89;101963.62;1770047;80;21128;-50
2021/04/09 11:25:47;;;;;;;12.13;5.62;;;;;;;10.38;42.40;101965.77;1769575;80;21069;-51
2021/04/09 11:28:28;;;;;;;9.53;5.37;;;;;;;10.43;43.31;101959.91;1769596;79;21074;-50
2021/04/09 11:30:57;;;;;;;14.10;6.40;;;;;;;10.43;44.64;101964.83;1772591;80;21160;-51
2021/04/09 11:33:39;;;;;;;11.40;5.70;;;;;;;10.44;45.58;101971.97;1774292;80;21493;-51
2021/04/09 11:36:17;;;;;;;5.37;3.30;;;;;;;10.55;45.39;101963.76;1777747;80;21105;-51
2021/04/09 11:38:50;;;;;;;4.30;3.05;;;;;;;10.71;39.82;101952.77;1780362;80;21354;-52
2021/04/09 11:41:32;;;;;;;4.05;2.70;;;;;;;10.93;38.28;101947.03;1786313;80;21086;-52
2021/04/09 11:44:01;;;;;;;6.70;2.70;;;;;;;11.14;37.96;101951.16;1786676;80;20931;-52
2021/04/09 11:46:37;;;;;;;5.75;2.52;;;;;;;11.36;37.19;101950.28;1758073;80;21615;-51
2021/04/09 11:49:06;;;;;;;4.25;2.67;;;;;;;11.50;35.96;101947.80;1786621;80;20990;-51